createdAt,value
2023-03-24T00:01:08.977Z,5.17
2023-03-24T00:03:36.648Z,5.47
2023-03-24T00:06:05.876Z,5.37
2023-03-24T00:08:36.781Z,5.60
2023-03-24T00:11:11.694Z,5.60
2023-03-24T00:13:39.865Z,5.87
2023-03-24T00:16:13.906Z,5.60
2023-03-24T00:18:41.475Z,5.83
2023-03-24T00:21:11.612Z,6.13
2023-03-24T00:23:43.630Z,6.00
2023-03-24T00:26:16.880Z,6.43
2023-03-24T00:28:47.974Z,5.93
2023-03-24T00:31:17.336Z,5.70
2023-03-24T00:33:51.369Z,5.57
2023-03-24T00:36:23.045Z,5.87
2023-03-24T00:38:50.629Z,7.03
2023-03-24T00:41:20.120Z,6.03
2023-03-24T00:43:49.727Z,6.40
2023-03-24T00:46:28.011Z,6.30
2023-03-24T00:49:07.657Z,6.00
2023-03-24T00:51:40.795Z,5.70
2023-03-24T00:54:11.183Z,6.03
2023-03-24T00:56:40.851Z,5.93
2023-03-24T00:59:10.281Z,6.27
2023-03-24T01:01:41.116Z,5.83
2023-03-24T01:04:10.132Z,6.30
2023-03-24T01:06:38.355Z,5.97
2023-03-24T01:09:07.001Z,6.13
2023-03-24T01:11:40.243Z,5.40
2023-03-24T01:14:08.652Z,5.43
2023-03-24T01:16:36.086Z,6.07
2023-03-24T01:19:04.281Z,5.70
2023-03-24T01:21:31.851Z,5.83
2023-03-24T01:23:59.032Z,6.13
2023-03-24T01:26:26.200Z,6.47
2023-03-24T01:28:53.862Z,5.60
2023-03-24T01:31:21.517Z,5.80
2023-03-24T01:33:48.638Z,6.03
2023-03-24T01:36:15.877Z,5.33
2023-03-24T01:38:43.078Z,5.60
2023-03-24T01:41:10.239Z,4.97
2023-03-24T01:43:37.636Z,4.67
2023-03-24T01:46:18.691Z,4.57
2023-03-24T01:48:55.620Z,4.83
2023-03-24T01:51:34.683Z,4.77
2023-03-24T01:54:24.002Z,4.47
2023-03-24T01:57:01.196Z,4.20
2023-03-24T01:59:32.324Z,4.30
2023-03-24T02:02:09.748Z,4.43
2023-03-24T02:04:48.431Z,4.30
2023-03-24T02:07:42.069Z,4.17
2023-03-24T02:10:14.991Z,3.97
2023-03-24T02:12:43.558Z,4.10
2023-03-24T02:15:14.175Z,3.97
2023-03-24T02:17:51.841Z,4.20
2023-03-24T02:20:52.974Z,4.20
2023-03-24T02:24:06.956Z,4.37
2023-03-24T02:26:55.810Z,4.20
2023-03-24T02:29:43.089Z,4.40
2023-03-24T02:32:52.198Z,4.70
2023-03-24T02:35:30.398Z,3.90
2023-03-24T02:38:46.675Z,4.73
2023-03-24T02:41:55.471Z,4.33
2023-03-24T02:44:51.247Z,5.00
2023-03-24T02:47:29.291Z,5.17
2023-03-24T02:50:14.930Z,4.80
2023-03-24T02:52:50.672Z,4.90
2023-03-24T02:55:40.681Z,5.63
2023-03-24T02:58:17.979Z,5.20
2023-03-24T03:00:59.642Z,5.30
2023-03-24T03:03:51.763Z,5.87
2023-03-24T03:06:34.904Z,6.00
2023-03-24T03:09:09.942Z,5.90
2023-03-24T03:11:40.978Z,6.33
2023-03-24T03:14:21.258Z,5.90
2023-03-24T03:17:06.933Z,5.93
2023-03-24T03:19:58.113Z,6.30
2023-03-24T03:22:34.117Z,6.20
2023-03-24T03:25:04.353Z,6.20
2023-03-24T03:27:39.315Z,6.73
2023-03-24T03:30:18.340Z,5.97
2023-03-24T03:32:55.608Z,7.00
2023-03-24T03:35:59.258Z,6.80
2023-03-24T03:38:44.998Z,6.70
2023-03-24T03:41:12.798Z,6.67
2023-03-24T03:43:40.342Z,6.37
2023-03-24T03:46:08.389Z,6.90
2023-03-24T03:48:40.348Z,7.80
2023-03-24T03:51:13.680Z,7.30
2023-03-24T03:53:53.028Z,6.73
2023-03-24T03:56:28.048Z,6.87
2023-03-24T03:59:23.710Z,6.73
2023-03-24T04:01:51.314Z,7.03
2023-03-24T04:05:06.776Z,7.40
2023-03-24T04:08:23.310Z,6.90
2023-03-24T04:11:32.874Z,7.07
2023-03-24T04:14:40.463Z,7.33
2023-03-24T04:17:57.196Z,7.83
2023-03-24T04:21:08.906Z,7.63
2023-03-24T04:24:16.807Z,7.70
2023-03-24T04:26:54.602Z,7.60
2023-03-24T04:29:46.847Z,8.20
2023-03-24T04:32:28.673Z,7.37
2023-03-24T04:35:04.979Z,6.97
2023-03-24T04:37:56.331Z,6.80
2023-03-24T04:40:33.184Z,7.57
2023-03-24T04:43:07.379Z,7.63
2023-03-24T04:45:37.322Z,7.67
2023-03-24T04:48:23.928Z,8.37
2023-03-24T04:51:15.517Z,8.37
2023-03-24T04:54:08.775Z,8.93
2023-03-24T04:56:48.754Z,8.67
2023-03-24T04:59:20.317Z,9.20
2023-03-24T05:01:51.718Z,8.87
2023-03-24T05:04:37.979Z,9.70
2023-03-24T05:07:18.468Z,9.13
2023-03-24T05:09:49.061Z,9.50
2023-03-24T05:12:16.454Z,9.03
2023-03-24T05:15:07.250Z,9.67
2023-03-24T05:17:36.125Z,10.77
2023-03-24T05:20:10.606Z,10.63
2023-03-24T05:22:39.531Z,9.37
2023-03-24T05:25:07.180Z,9.87
2023-03-24T05:27:34.478Z,9.80
2023-03-24T05:30:14.918Z,8.77
2023-03-24T05:32:44.830Z,10.37
2023-03-24T05:35:13.530Z,9.50
2023-03-24T05:37:42.805Z,9.97
2023-03-24T05:40:11.098Z,10.23
2023-03-24T05:42:45.574Z,9.80
2023-03-24T05:45:14.600Z,10.50
2023-03-24T05:47:41.959Z,10.07
2023-03-24T05:50:10.243Z,9.77
2023-03-24T05:52:37.472Z,9.90
2023-03-24T05:55:21.900Z,9.93
2023-03-24T05:57:55.586Z,10.23
2023-03-24T06:00:38.258Z,10.70
2023-03-24T06:03:14.324Z,10.97
2023-03-24T06:05:48.193Z,9.63
2023-03-24T06:08:17.216Z,10.27
2023-03-24T06:10:44.581Z,10.00
2023-03-24T06:13:12.770Z,10.20
2023-03-24T06:15:47.186Z,9.53
2023-03-24T06:18:33.549Z,9.30
2023-03-24T06:21:07.640Z,8.97
2023-03-24T06:23:35.746Z,9.80
2023-03-24T06:26:12.478Z,10.00
2023-03-24T06:28:51.856Z,9.57
2023-03-24T06:31:21.583Z,8.70
2023-03-24T06:33:52.301Z,9.47
2023-03-24T06:36:19.963Z,9.03
2023-03-24T06:38:47.523Z,8.90
2023-03-24T06:41:19.168Z,8.10
2023-03-24T06:43:49.452Z,8.33
2023-03-24T06:46:16.684Z,7.97
2023-03-24T06:48:46.967Z,7.87
2023-03-24T06:51:14.481Z,8.23
2023-03-24T06:53:43.922Z,8.33
2023-03-24T06:56:18.149Z,8.63
2023-03-24T06:58:51.606Z,8.83
2023-03-24T07:01:27.567Z,7.90
2023-03-24T07:03:58.228Z,8.50
2023-03-24T07:06:25.601Z,8.47
2023-03-24T07:08:57.675Z,9.37
2023-03-24T07:11:28.132Z,9.67
2023-03-24T07:13:58.732Z,9.03
2023-03-24T07:16:27.453Z,9.37
2023-03-24T07:19:05.233Z,9.50
2023-03-24T07:21:36.350Z,9.07
2023-03-24T07:24:03.579Z,8.53
2023-03-24T07:26:37.441Z,7.93
2023-03-24T07:29:12.347Z,8.20
2023-03-24T07:32:01.139Z,8.03
2023-03-24T07:34:29.252Z,8.30
2023-03-24T07:36:56.663Z,8.50
2023-03-24T07:39:23.879Z,7.87
2023-03-24T07:41:51.578Z,7.70
2023-03-24T07:44:29.345Z,8.23
2023-03-24T07:46:57.712Z,7.40
2023-03-24T07:49:24.897Z,6.73
2023-03-24T07:52:07.938Z,7.43
2023-03-24T07:54:41.374Z,6.80
2023-03-24T07:57:11.120Z,6.87
2023-03-24T07:59:38.851Z,6.27
2023-03-24T08:02:21.121Z,7.50
2023-03-24T08:05:14.580Z,8.10
2023-03-24T08:07:53.606Z,7.40
2023-03-24T08:10:32.843Z,8.60
2023-03-24T08:13:00.276Z,7.90
2023-03-24T08:15:28.659Z,8.37
2023-03-24T08:17:56.836Z,9.93
2023-03-24T08:20:25.341Z,10.23
2023-03-24T08:22:54.277Z,46.03
2023-03-24T08:25:25.909Z,8.83
2023-03-24T08:27:54.130Z,8.73
2023-03-24T08:30:24.521Z,8.53
2023-03-24T08:32:55.372Z,8.57
2023-03-24T08:35:26.947Z,8.87
2023-03-24T08:37:54.254Z,8.63
2023-03-24T08:40:24.302Z,9.00
2023-03-24T08:42:55.849Z,8.40
2023-03-24T08:45:28.397Z,7.73
2023-03-24T08:47:56.944Z,7.77
2023-03-24T08:50:28.179Z,7.60
2023-03-24T08:52:56.879Z,7.20
2023-03-24T08:55:24.965Z,7.33
2023-03-24T08:57:52.457Z,7.43
2023-03-24T09:00:21.364Z,7.30
2023-03-24T09:02:52.605Z,6.60
2023-03-24T09:05:32.907Z,6.80
2023-03-24T09:08:08.541Z,7.13
2023-03-24T09:10:35.772Z,6.90
2023-03-24T09:13:04.337Z,6.50
2023-03-24T09:15:31.716Z,6.00
2023-03-24T09:17:59.101Z,4.83
2023-03-24T09:20:26.296Z,4.10
2023-03-24T09:22:53.413Z,4.10
2023-03-24T09:25:21.729Z,4.20
2023-03-24T09:27:49.020Z,2.70
2023-03-24T09:30:18.480Z,1.73
2023-03-24T09:32:46.783Z,1.40
2023-03-24T09:35:15.134Z,1.80
2023-03-24T09:37:43.904Z,1.70
2023-03-24T09:40:26.183Z,1.60
2023-03-24T09:43:05.746Z,1.50
2023-03-24T09:45:53.009Z,1.87
2023-03-24T09:48:44.955Z,1.30
2023-03-24T09:51:35.780Z,1.80
2023-03-24T09:54:53.906Z,1.60
2023-03-24T09:57:32.534Z,1.50
2023-03-24T09:59:59.845Z,1.33
2023-03-24T10:02:30.839Z,1.73
2023-03-24T10:04:59.286Z,1.20
2023-03-24T10:07:39.611Z,1.90
2023-03-24T10:10:24.455Z,1.40
2023-03-24T10:12:52.454Z,1.77
2023-03-24T10:15:37.946Z,2.00
2023-03-24T10:18:27.156Z,1.90
2023-03-24T10:21:19.735Z,1.53
2023-03-24T10:24:26.291Z,1.80
2023-03-24T10:27:17.285Z,1.40
2023-03-24T10:29:46.564Z,1.63
2023-03-24T10:32:25.726Z,1.50
2023-03-24T10:35:09.889Z,2.00
2023-03-24T10:37:37.797Z,1.83
2023-03-24T10:40:16.511Z,1.90
2023-03-24T10:42:48.808Z,2.20
2023-03-24T10:45:27.513Z,2.00
2023-03-24T10:47:59.774Z,2.00
2023-03-24T10:50:33.510Z,1.70
2023-03-24T10:53:00.961Z,1.80
2023-03-24T10:55:39.742Z,1.80
2023-03-24T10:58:42.286Z,1.83
2023-03-24T11:01:30.809Z,2.13
2023-03-24T11:04:05.534Z,1.90
2023-03-24T11:06:34.355Z,2.37
2023-03-24T11:09:22.534Z,2.07
2023-03-24T11:11:52.617Z,1.80
2023-03-24T11:14:25.514Z,1.70
2023-03-24T11:17:03.588Z,1.80
2023-03-24T11:19:32.636Z,1.80
2023-03-24T11:22:04.047Z,2.00
2023-03-24T11:24:36.954Z,2.37
2023-03-24T11:27:04.637Z,2.10
2023-03-24T11:29:40.106Z,2.07
2023-03-24T11:32:24.935Z,2.77
2023-03-24T11:35:04.043Z,1.90
2023-03-24T11:37:35.390Z,2.00
2023-03-24T11:40:25.298Z,2.23
2023-03-24T11:43:00.243Z,1.63
2023-03-24T11:45:39.868Z,1.97
2023-03-24T11:48:40.473Z,2.10
2023-03-24T11:51:12.567Z,2.00
2023-03-24T11:53:48.410Z,2.10
2023-03-24T11:56:31.875Z,1.80
2023-03-24T11:59:34.675Z,1.80
2023-03-24T12:02:07.818Z,2.00
2023-03-24T12:05:11.245Z,2.17
2023-03-24T12:07:45.142Z,1.70
2023-03-24T12:10:38.828Z,1.83
2023-03-24T12:13:31.803Z,1.83
2023-03-24T12:16:12.723Z,2.10
2023-03-24T12:19:19.747Z,2.00
2023-03-24T12:22:09.785Z,1.97
2023-03-24T12:25:18.965Z,1.60
2023-03-24T12:28:10.272Z,2.10
2023-03-24T12:31:23.192Z,1.73
2023-03-24T12:34:27.669Z,1.87
2023-03-24T12:37:31.229Z,1.60
2023-03-24T12:40:22.086Z,1.60
2023-03-24T12:43:05.202Z,1.47
2023-03-24T12:45:52.793Z,1.80
2023-03-24T12:48:38.280Z,1.53
2023-03-24T12:51:33.456Z,1.63
2023-03-24T12:54:21.820Z,1.93
2023-03-24T12:57:20.914Z,1.80
2023-03-24T12:59:59.380Z,1.80
2023-03-24T13:02:43.297Z,1.50
2023-03-24T13:05:19.326Z,1.83
2023-03-24T13:07:54.115Z,1.50
2023-03-24T13:10:27.806Z,1.50
2023-03-24T13:13:22.513Z,4.47
2023-03-24T13:16:01.326Z,1.63
2023-03-24T13:18:40.363Z,1.40
2023-03-24T13:21:15.057Z,1.83
2023-03-24T13:23:58.135Z,2.00
2023-03-24T13:26:39.832Z,1.83
2023-03-24T13:29:49.886Z,1.90
2023-03-24T13:32:20.280Z,1.80
2023-03-24T13:35:06.301Z,1.70
2023-03-24T13:37:41.943Z,2.10
2023-03-24T13:40:20.461Z,1.70
2023-03-24T13:43:11.382Z,2.13
2023-03-24T13:46:10.696Z,2.10
2023-03-24T13:48:50.989Z,1.80
2023-03-24T13:51:24.779Z,2.10
2023-03-24T13:54:20.721Z,2.13
2023-03-24T13:57:08.792Z,1.93
2023-03-24T14:00:14.357Z,1.80
2023-03-24T14:02:52.692Z,2.23
2023-03-24T14:05:24.120Z,2.03
2023-03-24T14:08:01.065Z,1.87
2023-03-24T14:10:38.617Z,2.47
2023-03-24T14:13:20.467Z,2.13
2023-03-24T14:16:00.799Z,1.80
2023-03-24T14:18:27.918Z,2.50
2023-03-24T14:20:58.028Z,1.90
2023-03-24T14:23:46.822Z,2.10
2023-03-24T14:26:20.401Z,2.20
2023-03-24T14:28:57.155Z,2.23
2023-03-24T14:31:33.634Z,2.67
2023-03-24T14:34:14.151Z,1.60
2023-03-24T14:36:44.434Z,2.00
2023-03-24T14:39:32.222Z,1.80
2023-03-24T14:41:59.682Z,1.63
2023-03-24T14:44:52.474Z,1.80
2023-03-24T14:47:37.829Z,1.80
2023-03-24T14:50:21.917Z,2.10
2023-03-24T14:52:55.004Z,2.10
2023-03-24T14:55:23.005Z,2.00
2023-03-24T14:58:02.315Z,2.00
2023-03-24T15:04:05.190Z,1.77
2023-03-24T15:06:33.236Z,2.00
2023-03-24T15:09:05.645Z,2.53
2023-03-24T15:11:39.793Z,1.70
2023-03-24T15:14:21.288Z,2.33
2023-03-24T15:17:28.771Z,2.20
2023-03-24T15:19:56.226Z,2.50
2023-03-24T15:22:23.533Z,2.83
2023-03-24T15:24:52.058Z,2.57
2023-03-24T15:27:26.736Z,2.20
2023-03-24T15:29:59.567Z,2.30
2023-03-24T15:32:31.472Z,2.30
2023-03-24T15:35:06.354Z,2.10
2023-03-24T15:37:40.000Z,2.13
2023-03-24T15:40:30.520Z,2.23
2023-03-24T15:43:02.413Z,2.40
2023-03-24T15:45:32.346Z,2.40
2023-03-24T15:48:19.342Z,2.10
2023-03-24T15:51:06.253Z,2.30
2023-03-24T15:53:33.587Z,2.13
2023-03-24T15:56:31.595Z,2.30
2023-03-24T15:59:10.957Z,2.80
2023-03-24T16:01:39.417Z,2.30
2023-03-24T16:04:17.178Z,2.90
2023-03-24T16:06:52.916Z,2.30
2023-03-24T16:09:22.465Z,2.30
2023-03-24T16:11:49.864Z,2.40
2023-03-24T16:14:26.986Z,2.37
2023-03-24T16:17:00.199Z,2.10
2023-03-24T16:19:28.640Z,7.43
2023-03-24T16:21:56.158Z,2.23
2023-03-24T16:24:23.319Z,2.43
2023-03-24T16:26:50.655Z,2.47
2023-03-24T16:29:24.889Z,2.70
2023-03-24T16:31:56.323Z,2.67
2023-03-24T16:34:24.010Z,2.30
2023-03-24T16:36:54.260Z,2.33
2023-03-24T16:39:27.223Z,2.50
2023-03-24T16:41:55.582Z,2.27
2023-03-24T16:44:23.761Z,2.53
2023-03-24T16:46:54.057Z,2.50
2023-03-24T16:49:22.729Z,2.30
2023-03-24T16:51:50.695Z,2.43
2023-03-24T16:54:18.037Z,2.47
2023-03-24T16:56:45.403Z,3.30
2023-03-24T16:59:14.835Z,2.43
2023-03-24T17:01:46.070Z,2.63
2023-03-24T17:04:19.201Z,2.67
2023-03-24T17:06:53.468Z,2.63
2023-03-24T17:09:21.891Z,2.33
2023-03-24T17:11:52.397Z,2.73
2023-03-24T17:14:19.672Z,2.73
2023-03-24T17:16:48.998Z,2.53
2023-03-24T17:19:20.960Z,2.33
2023-03-24T17:22:03.981Z,2.60
2023-03-24T17:24:41.520Z,2.17
2023-03-24T17:27:26.728Z,2.90
2023-03-24T17:29:53.896Z,2.00
2023-03-24T17:32:22.347Z,2.67
2023-03-24T17:34:49.594Z,2.73
2023-03-24T17:37:17.174Z,2.60
2023-03-24T17:39:44.437Z,2.80
2023-03-24T17:42:11.569Z,2.33
2023-03-24T17:44:38.814Z,2.83
2023-03-24T17:47:07.224Z,3.03
2023-03-24T17:49:34.433Z,2.60
2023-03-24T17:52:01.623Z,2.73
2023-03-24T17:54:29.464Z,4.37
2023-03-24T17:56:56.788Z,3.60
2023-03-24T17:59:23.958Z,3.13
2023-03-24T18:01:51.067Z,3.60
2023-03-24T18:04:18.508Z,4.50
2023-03-24T18:06:46.551Z,4.53
2023-03-24T18:09:14.053Z,2.97
2023-03-24T18:11:41.331Z,2.97
2023-03-24T18:14:09.168Z,3.00
2023-03-24T18:16:36.996Z,2.70
2023-03-24T18:19:04.222Z,2.80
2023-03-24T18:21:31.544Z,2.80
2023-03-24T18:23:58.663Z,3.80
2023-03-24T18:26:26.329Z,3.13
2023-03-24T18:28:54.345Z,3.10
2023-03-24T18:31:23.436Z,3.57
2023-03-24T18:33:51.289Z,3.63
2023-03-24T18:36:26.568Z,3.87
2023-03-24T18:39:05.242Z,4.67
2023-03-24T18:41:36.959Z,4.60
2023-03-24T18:44:07.555Z,4.47
2023-03-24T18:46:35.011Z,5.87
2023-03-24T18:49:02.219Z,4.10
2023-03-24T18:51:29.520Z,4.83
2023-03-24T18:53:56.852Z,3.80
2023-03-24T18:56:24.256Z,4.97
2023-03-24T18:58:52.396Z,3.60
2023-03-24T19:01:22.841Z,3.60
2023-03-24T19:03:52.264Z,2.93
2023-03-24T19:06:20.077Z,3.40
2023-03-24T19:08:51.701Z,3.63
2023-03-24T19:11:19.522Z,3.87
2023-03-24T19:13:49.705Z,3.17
2023-03-24T19:16:19.245Z,3.33
2023-03-24T19:18:48.389Z,3.50
2023-03-24T19:21:17.127Z,3.20
2023-03-24T19:23:46.651Z,3.70
2023-03-24T19:26:16.121Z,3.70
2023-03-24T19:28:43.852Z,3.57
2023-03-24T19:31:15.407Z,3.63
2023-03-24T19:33:43.140Z,3.27
2023-03-24T19:36:10.989Z,3.43
2023-03-24T19:38:39.516Z,2.60
2023-03-24T19:41:10.068Z,2.83
2023-03-24T19:43:37.352Z,2.63
2023-03-24T19:46:06.284Z,2.53
2023-03-24T19:48:34.457Z,2.27
2023-03-24T19:51:01.850Z,2.20
2023-03-24T19:53:29.108Z,2.87
2023-03-24T19:55:58.161Z,2.03
2023-03-24T19:58:25.973Z,2.43
2023-03-24T20:00:53.322Z,2.30
2023-03-24T20:03:20.923Z,2.53
2023-03-24T20:05:48.960Z,2.07
2023-03-24T20:08:16.621Z,1.80
2023-03-24T20:10:43.856Z,2.03
2023-03-24T20:13:11.401Z,1.97
2023-03-24T20:15:38.615Z,1.90
2023-03-24T20:18:06.720Z,2.83
2023-03-24T20:20:33.879Z,2.30
2023-03-24T20:23:01.028Z,2.60
2023-03-24T20:25:28.772Z,2.10
2023-03-24T20:27:56.117Z,2.80
2023-03-24T20:30:24.130Z,3.17
2023-03-24T20:32:56.310Z,3.17
2023-03-24T20:35:24.592Z,2.90
2023-03-24T20:37:51.891Z,3.20
2023-03-24T20:40:21.765Z,2.20
2023-03-24T20:42:49.382Z,5.23
2023-03-24T20:45:16.791Z,2.23
2023-03-24T20:47:44.060Z,2.60
2023-03-24T20:50:11.543Z,2.77
2023-03-24T20:52:38.883Z,1.87
2023-03-24T20:55:06.583Z,2.40
2023-03-24T20:57:34.545Z,2.50
2023-03-24T21:00:02.165Z,2.50
2023-03-24T21:02:31.682Z,2.00
2023-03-24T21:04:59.243Z,2.63
2023-03-24T21:07:27.134Z,2.63
2023-03-24T21:09:54.638Z,2.50
2023-03-24T21:12:21.852Z,2.93
2023-03-24T21:14:49.378Z,2.23
2023-03-24T21:17:18.817Z,2.30
2023-03-24T21:19:46.813Z,2.33
2023-03-24T21:22:15.357Z,2.47
2023-03-24T21:24:42.515Z,2.77
2023-03-24T21:27:09.789Z,2.90
2023-03-24T21:29:36.998Z,2.73
2023-03-24T21:32:04.320Z,2.83
2023-03-24T21:34:31.538Z,2.23
2023-03-24T21:37:01.827Z,2.50
2023-03-24T21:39:29.356Z,2.47
2023-03-24T21:41:56.534Z,2.43
2023-03-24T21:44:24.927Z,2.17
2023-03-24T21:46:52.171Z,2.33
2023-03-24T21:49:19.950Z,2.23
2023-03-24T21:51:47.883Z,2.90
2023-03-24T21:54:15.223Z,2.63
2023-03-24T21:56:42.436Z,2.67
2023-03-24T21:59:11.115Z,2.30
2023-03-24T22:01:38.719Z,3.17
2023-03-24T22:04:08.873Z,2.40
2023-03-24T22:06:37.682Z,1.90
2023-03-24T22:09:07.035Z,2.43
2023-03-24T22:11:36.225Z,2.70
2023-03-24T22:14:03.896Z,2.20
2023-03-24T22:16:32.881Z,2.20
2023-03-24T22:19:01.479Z,2.07
2023-03-24T22:21:28.743Z,2.60
2023-03-24T22:23:55.821Z,1.80
2023-03-24T22:26:23.179Z,2.67
2023-03-24T22:28:50.776Z,2.70
2023-03-24T22:31:18.244Z,2.77
2023-03-24T22:33:47.505Z,2.67
2023-03-24T22:36:14.722Z,2.20
2023-03-24T22:38:42.454Z,2.17
2023-03-24T22:41:12.496Z,2.13
2023-03-24T22:43:40.956Z,2.00
2023-03-24T22:46:10.328Z,2.03
2023-03-24T22:48:40.692Z,2.00
2023-03-24T22:51:09.140Z,1.77
2023-03-24T22:53:36.410Z,2.20
2023-03-24T22:56:03.622Z,2.30
2023-03-24T22:58:30.811Z,1.97
2023-03-24T23:00:57.952Z,1.70
2023-03-24T23:03:25.183Z,1.93
2023-03-24T23:05:52.885Z,2.00
2023-03-24T23:08:20.378Z,2.10
2023-03-24T23:10:48.808Z,2.17
2023-03-24T23:13:17.114Z,1.73
2023-03-24T23:15:44.628Z,1.93
2023-03-24T23:18:12.152Z,2.40
2023-03-24T23:20:40.598Z,2.20
2023-03-24T23:23:10.981Z,2.40
2023-03-24T23:25:43.870Z,2.20
2023-03-24T23:28:13.076Z,2.07
2023-03-24T23:30:42.113Z,1.60
2023-03-24T23:33:09.387Z,1.93
2023-03-24T23:35:37.479Z,1.87
2023-03-24T23:38:06.725Z,2.10
2023-03-24T23:40:34.101Z,1.87
2023-03-24T23:43:02.374Z,2.23
2023-03-24T23:45:29.820Z,1.80
2023-03-24T23:47:57.051Z,2.07
2023-03-24T23:50:24.282Z,2.17
2023-03-24T23:52:51.582Z,2.00
2023-03-24T23:55:18.820Z,2.10
2023-03-24T23:57:46.714Z,2.27
